Timber Mountain, Nevada Weather observations

Data are for 10 minute period ending at time listed.
 Day   Time   Solar   Ave.   Ave.  Ave.  Vector  Max.   Baro.   Total    
  of    of     Rad.   Air    Rel.  Wind   Wind   Wind  Press.  Precip.   
Year   Day            Temp.  Hum.  Speed  Dir.   Gust                    
2014   (PST)  Kw/m2    F      %     mph   deg.    mph    mb.     in.     
-------------------------------------------------------------------------
 303    2:00   0.00   48.0    24    6.9   118     8.6   815.9    0.00 
 303    3:00   0.00   47.1    24    6.9   127     8.6   815.6    0.00 
 303    4:00   0.00   46.0    25    6.5   125     8.6   815.4    0.00 
 303    5:00   0.00   45.6    26    7.0   127     8.7   815.3    0.00 
 303    6:00   0.00   46.2    25    7.1   121    10.0   815.3    0.00 
 303    7:00   0.04   50.2    22    7.8   108    10.5   815.3    0.00 
 303    8:00   0.24   59.6    16    7.9   111    13.4   815.7    0.00 
 303    9:00   0.41   61.8    15   10.6   121    16.7   815.8    0.00 
 303   10:00   0.53   65.0    14    8.9   109    15.6   815.6    0.00 
 303   11:00   0.68   67.8    15   10.1   128    19.6   815.2    0.00 
 303   12:00   0.64   67.8    17   10.6   146    23.1   814.7    0.00 
 303   13:00   0.55   67.2    17   11.2   149    21.5   814.0    0.00 
 303   14:00   0.54   67.0    18   12.7   144    26.3   813.4    0.00 
 303   15:00   0.33   64.9    19   12.2   146    23.9   813.2    0.00 
 303   16:00   0.14   62.8    20   10.7   144    19.9   813.0    0.00 
 303   17:00   0.05   61.3    20    7.5   142    15.6   812.9    0.00 
 303   18:00   0.00   57.9    22    4.8   130    10.3   812.9    0.00 
 303   19:00   0.00   55.2    23    3.9   129     9.2   812.7    0.00 
 303   20:00   0.00   54.6    24    5.5   124    12.1   812.6    0.00 
 303   21:00   0.00   57.6    24   11.4   143    23.8   812.2    0.00 
 303   22:00   0.00   57.7    23   10.8   157    27.6   812.0    0.00 
 303   23:00   0.00   55.9    24    7.9   159    21.1   812.0    0.00 
 304    0:00   0.00   55.0    24    7.1   172    17.7   811.8    0.00 
 304    1:00   0.00   54.6    24   12.9   143    26.7   811.4    0.00 

Return to Timber Mountain graphs page.


Western Regional Climate Center,wrcc@dri.edu